KDRI/DRI METAR and TAF weather

Enter ICAO airport designator
Station Type Date Time Source
KDRI METAR 2018/07/17 00:15 UTC NOAA

KDRI 170015Z AUTO 22004KT 7SM CLR 32/22 A3000 RMK AO2 T03220223


Station Type Date Time Source
KDRI Decoded METAR 2018/07/17 00:15 UTC NOAA

De Ridder, Beauregard Parish Airport, LA, United States (KDRI) 30-49-54N 093-20-23W
Jul 16, 2018 - 08:15 PM EDT / 2018.07.17 0015 UTC
Wind: from the SW (220 degrees) at 5 MPH (4 KT):0
Visibility: 7 mile(s):0
Sky conditions: clear
Temperature: 90.0 F (32.2 C)
Heat index: 97.0 F (36.1 C):1
Dew Point: 72.1 F (22.3 C)
Relative Humidity: 55%
Pressure (altimeter): 30 in. Hg (1015 hPa)
ob: KDRI 170015Z AUTO 22004KT 7SM CLR 32/22 A3000 RMK AO2 T03220223
cycle: 0

Station Type Date Time Source
KDRI TAF UTC NOAA

Error!


Example: see airport list